Time;durP1;ratioP1;P1;durP2;ratioP2;P2;SDS_P1;SDS_P2;PMS_P1;PMS_P2;Temp;Humidity;BMP_temperature;BMP_pressure;BME280_temperature;BME280_humidity;BME280_pressure;Samples;Min_cycle;Max_cycle;Signal;HPM_P1;HPM_P2
2021/10/24 00:02:01;;;;;;;66.80;38.30;;;;;;;;;;5017993;28;20144;-46
2021/10/24 00:04:27;;;;;;;21.75;10.38;;;;;;;;;;5033992;28;20018;-46
2021/10/24 00:06:53;;;;;;;27.75;14.63;;;;;;;;;;5036447;28;20026;-45
2021/10/24 00:09:20;;;;;;;53.85;30.52;;;;;;;;;;5036389;28;20027;-45
2021/10/24 00:11:46;;;;;;;43.13;21.27;;;;;;;;;;5036109;28;20025;-45
2021/10/24 00:14:12;;;;;;;16.08;8.00;;;;;;;;;;5040548;28;20033;-45
2021/10/24 00:16:38;;;;;;;7.70;3.80;;;;;;;;;;5056096;28;20504;-45
2021/10/24 00:19:04;;;;;;;26.05;13.95;;;;;;;;;;5056252;28;20029;-45
2021/10/24 00:21:30;;;;;;;30.95;17.30;;;;;;;;;;5054806;28;20029;-44
2021/10/24 00:23:57;;;;;;;21.52;12.65;;;;;;;;;;5055600;28;20029;-45
2021/10/24 00:26:23;;;;;;;17.33;7.93;;;;;;;;;;5055589;28;20057;-45
2021/10/24 00:28:49;;;;;;;31.15;17.45;;;;;;;;;;5056243;28;20076;-45
2021/10/24 00:31:15;;;;;;;23.60;12.88;;;;;;;;;;5055860;28;20032;-45
2021/10/24 00:33:41;;;;;;;28.23;14.50;;;;;;;;;;5055759;28;20055;-45
2021/10/24 00:36:07;;;;;;;65.78;34.80;;;;;;;;;;5055981;28;20380;-45
2021/10/24 00:38:36;;;;;;;28.58;14.77;;;;;;;;;;5055663;28;20087;-45
2021/10/24 00:41:02;;;;;;;18.13;9.27;;;;;;;;;;5054455;28;20412;-45
2021/10/24 00:43:28;;;;;;;24.40;11.00;;;;;;;;;;5055684;28;20033;-45
2021/10/24 00:45:56;;;;;;;38.63;20.70;;;;;;;;;;5055182;28;20108;-45
2021/10/24 00:48:23;;;;;;;17.98;9.52;;;;;;;;;;5055664;28;20017;-45
2021/10/24 00:50:49;;;;;;;27.63;15.45;;;;;;;;;;5055767;28;20033;-46
2021/10/24 00:53:15;;;;;;;38.78;19.40;;;;;;;;;;5055746;28;20032;-46
2021/10/24 00:55:42;;;;;;;24.73;13.32;;;;;;;;;;5054556;28;20102;-45
2021/10/24 00:58:08;;;;;;;18.65;8.68;;;;;;;;;;5055603;28;20075;-47
2021/10/24 01:00:34;;;;;;;33.80;17.20;;;;;;;;;;5055353;28;20387;-45
2021/10/24 01:03:01;;;;;;;51.97;25.90;;;;;;;;;;5055544;28;20059;-46
2021/10/24 01:05:29;;;;;;;39.58;21.73;;;;;;;;;;5055502;28;20097;-46
2021/10/24 01:07:58;;;;;;;13.95;5.47;;;;;;;;;;5055264;28;20569;-46
2021/10/24 01:10:24;;;;;;;21.23;10.50;;;;;;;;;;5055212;28;20025;-47
2021/10/24 01:12:51;;;;;;;17.42;8.60;;;;;;;;;;5054978;28;20141;-47
2021/10/24 01:15:18;;;;;;;21.42;9.65;;;;;;;;;;5053843;28;20388;-47
2021/10/24 01:17:44;;;;;;;9.90;4.55;;;;;;;;;;5053780;28;20021;-47
2021/10/24 01:20:15;;;;;;;18.50;9.25;;;;;;;;;;5055272;28;20025;-46
2021/10/24 01:22:41;;;;;;;22.70;12.27;;;;;;;;;;5055043;28;20040;-47
2021/10/24 01:25:08;;;;;;;31.23;15.73;;;;;;;;;;5054728;28;20523;-46
2021/10/24 01:27:42;;;;;;;15.73;8.15;;;;;;;;;;5055062;28;20079;-47
2021/10/24 01:30:08;;;;;;;19.25;8.07;;;;;;;;;;5055347;28;20064;-47
2021/10/24 01:32:35;;;;;;;21.25;9.98;;;;;;;;;;5054927;28;20027;-46
2021/10/24 01:35:01;;;;;;;14.98;7.38;;;;;;;;;;5054708;28;20111;-46
2021/10/24 01:37:31;;;;;;;13.60;6.30;;;;;;;;;;5054938;28;20018;-45
2021/10/24 01:39:58;;;;;;;28.33;15.32;;;;;;;;;;5054603;28;20481;-46
2021/10/24 01:42:24;;;;;;;14.55;5.65;;;;;;;;;;5054626;28;20076;-47
2021/10/24 01:44:51;;;;;;;11.43;5.40;;;;;;;;;;5054961;28;20021;-46
2021/10/24 01:47:17;;;;;;;24.40;9.70;;;;;;;;;;5054918;28;20021;-47
2021/10/24 01:49:43;;;;;;;15.15;8.88;;;;;;;;;;5054705;28;20032;-47
2021/10/24 01:52:09;;;;;;;16.42;7.55;;;;;;;;;;5054428;28;20025;-45
2021/10/24 01:54:36;;;;;;;32.25;15.60;;;;;;;;;;5054270;28;20029;-46
2021/10/24 01:57:02;;;;;;;11.70;5.03;;;;;;;;;;5053069;28;20444;-46
2021/10/24 01:59:28;;;;;;;28.77;13.80;;;;;;;;;;5054118;28;20033;-46
2021/10/24 02:01:54;;;;;;;19.45;9.70;;;;;;;;;;5054324;28;20078;-46
2021/10/24 02:04:20;;;;;;;14.48;7.20;;;;;;;;;;5054359;28;20017;-47
2021/10/24 02:06:48;;;;;;;23.95;11.02;;;;;;;;;;5054291;28;20028;-46
2021/10/24 02:09:17;;;;;;;19.98;9.05;;;;;;;;;;5054262;28;20017;-46
2021/10/24 02:11:43;;;;;;;17.33;8.77;;;;;;;;;;5054111;28;20017;-46
2021/10/24 02:14:11;;;;;;;22.95;12.07;;;;;;;;;;5054102;28;20111;-46
2021/10/24 02:16:40;;;;;;;23.00;13.30;;;;;;;;;;5054299;28;20044;-46
2021/10/24 02:19:06;;;;;;;15.48;6.45;;;;;;;;;;5054294;28;20024;-46
2021/10/24 02:21:32;;;;;;;25.52;14.48;;;;;;;;;;5053919;28;20032;-46
2021/10/24 02:23:58;;;;;;;41.60;22.15;;;;;;;;;;5053918;28;20048;-46
2021/10/24 02:26:24;;;;;;;35.92;17.35;;;;;;;;;;5053107;28;20063;-46
2021/10/24 02:28:51;;;;;;;21.25;9.70;;;;;;;;;;5053840;28;20032;-47
2021/10/24 02:31:17;;;;;;;19.42;8.68;;;;;;;;;;5053853;28;20473;-46
2021/10/24 02:33:43;;;;;;;18.98;9.07;;;;;;;;;;5053904;28;20028;-46
2021/10/24 02:36:12;;;;;;;16.58;7.43;;;;;;;;;;5053902;28;20021;-46
2021/10/24 02:38:38;;;;;;;20.10;8.90;;;;;;;;;;5053786;28;20017;-46
2021/10/24 02:41:06;;;;;;;22.77;10.68;;;;;;;;;;5053647;28;20043;-46
2021/10/24 02:43:33;;;;;;;16.75;7.70;;;;;;;;;;5053704;28;20024;-46
2021/10/24 02:45:59;;;;;;;40.47;20.15;;;;;;;;;;5053676;28;20472;-45
2021/10/24 02:48:25;;;;;;;18.83;8.50;;;;;;;;;;5053523;28;20057;-46
2021/10/24 02:50:51;;;;;;;19.67;9.63;;;;;;;;;;5053745;28;20024;-50
2021/10/24 02:53:17;;;;;;;21.10;10.48;;;;;;;;;;5053619;28;20033;-47
2021/10/24 02:55:46;;;;;;;20.52;10.35;;;;;;;;;;5053424;28;20369;-47
2021/10/24 02:58:12;;;;;;;30.33;16.05;;;;;;;;;;5053506;28;20025;-45
2021/10/24 03:00:38;;;;;;;13.77;7.25;;;;;;;;;;5052379;28;20027;-47
2021/10/24 03:03:04;;;;;;;18.10;9.52;;;;;;;;;;5053529;28;20029;-49
2021/10/24 03:05:30;;;;;;;16.88;8.32;;;;;;;;;;5053399;28;20490;-48
2021/10/24 03:07:56;;;;;;;10.88;5.07;;;;;;;;;;5053516;28;20377;-46
2021/10/24 03:10:22;;;;;;;21.73;11.45;;;;;;;;;;5053449;28;20027;-46
2021/10/24 03:12:50;;;;;;;20.38;10.35;;;;;;;;;;5053201;28;20079;-46
2021/10/24 03:15:16;;;;;;;17.88;8.35;;;;;;;;;;5053642;28;20036;-46
2021/10/24 03:17:42;;;;;;;17.15;8.35;;;;;;;;;;5053395;28;20024;-46
2021/10/24 03:20:09;;;;;;;20.20;9.52;;;;;;;;;;5053277;28;20487;-46
2021/10/24 03:22:35;;;;;;;12.00;4.85;;;;;;;;;;5053269;28;20037;-46
2021/10/24 03:25:01;;;;;;;17.08;5.45;;;;;;;;;;5052752;28;20041;-48
2021/10/24 03:27:27;;;;;;;16.80;5.63;;;;;;;;;;5053106;28;20544;-46
2021/10/24 03:29:53;;;;;;;13.32;7.68;;;;;;;;;;5053288;28;20028;-46
2021/10/24 03:32:22;;;;;;;15.75;6.72;;;;;;;;;;5051915;28;20420;-47
2021/10/24 03:34:48;;;;;;;20.83;7.95;;;;;;;;;;5053237;28;20483;-47
2021/10/24 03:37:19;;;;;;;18.70;7.95;;;;;;;;;;5054273;28;20108;-46
2021/10/24 03:39:45;;;;;;;24.90;12.35;;;;;;;;;;5057359;28;20017;-47
2021/10/24 03:42:11;;;;;;;19.23;7.25;;;;;;;;;;5057009;28;20031;-46
2021/10/24 03:44:37;;;;;;;13.95;5.07;;;;;;;;;;5057290;28;20086;-46
2021/10/24 03:47:03;;;;;;;14.90;6.28;;;;;;;;;;5057261;28;20025;-46
2021/10/24 03:49:30;;;;;;;11.70;4.82;;;;;;;;;;5057321;28;20021;-47
2021/10/24 03:51:56;;;;;;;14.68;5.90;;;;;;;;;;5057003;28;20025;-48
2021/10/24 03:54:22;;;;;;;15.63;7.97;;;;;;;;;;5056958;28;20532;-47
2021/10/24 03:56:48;;;;;;;16.38;7.32;;;;;;;;;;5056800;28;20078;-47
2021/10/24 03:59:14;;;;;;;20.42;9.05;;;;;;;;;;5056769;28;20017;-46
2021/10/24 04:01:40;;;;;;;21.20;9.93;;;;;;;;;;5055693;28;20503;-47
2021/10/24 04:04:06;;;;;;;15.68;6.65;;;;;;;;;;5057110;28;20032;-46
2021/10/24 04:06:33;;;;;;;14.55;5.65;;;;;;;;;;5056822;28;20032;-46
2021/10/24 04:09:00;;;;;;;17.50;7.05;;;;;;;;;;5056655;28;20035;-46
2021/10/24 04:11:26;;;;;;;15.95;5.63;;;;;;;;;;5056673;28;20377;-46
2021/10/24 04:13:52;;;;;;;19.08;6.93;;;;;;;;;;5056440;28;20031;-46
2021/10/24 04:16:18;;;;;;;18.05;6.88;;;;;;;;;;5056528;28;20032;-46
2021/10/24 04:18:44;;;;;;;14.93;5.93;;;;;;;;;;5056384;28;20411;-46
2021/10/24 04:21:12;;;;;;;14.15;5.45;;;;;;;;;;5056448;28;20023;-46
2021/10/24 04:23:38;;;;;;;23.80;9.02;;;;;;;;;;5056536;28;20079;-46
2021/10/24 04:26:04;;;;;;;21.75;8.20;;;;;;;;;;5055895;28;20048;-46
2021/10/24 04:28:31;;;;;;;18.33;5.80;;;;;;;;;;5056416;28;20040;-46
2021/10/24 04:30:57;;;;;;;17.35;6.10;;;;;;;;;;5056239;28;20021;-46
2021/10/24 04:33:23;;;;;;;17.50;6.50;;;;;;;;;;5056385;28;20453;-46
2021/10/24 04:35:49;;;;;;;17.80;7.45;;;;;;;;;;5056219;28;20349;-46
2021/10/24 04:38:18;;;;;;;23.02;8.50;;;;;;;;;;5056099;28;20165;-46
2021/10/24 04:40:46;;;;;;;18.38;7.93;;;;;;;;;;5056174;28;20017;-46
2021/10/24 04:43:15;;;;;;;15.65;6.28;;;;;;;;;;5055580;28;20029;-46
2021/10/24 04:45:42;;;;;;;18.50;6.55;;;;;;;;;;5055966;28;20021;-46
2021/10/24 04:48:08;;;;;;;19.42;6.70;;;;;;;;;;5055305;28;20558;-46
2021/10/24 04:50:37;;;;;;;17.13;7.82;;;;;;;;;;5055918;28;20376;-47
2021/10/24 04:53:06;;;;;;;33.25;15.73;;;;;;;;;;5055754;28;20527;-46
2021/10/24 04:55:32;;;;;;;28.50;11.10;;;;;;;;;;5055744;28;20029;-46
2021/10/24 04:57:58;;;;;;;24.25;12.85;;;;;;;;;;5055677;28;20072;-46
2021/10/24 05:00:24;;;;;;;28.77;9.73;;;;;;;;;;5055887;28;20372;-46
2021/10/24 05:02:50;;;;;;;25.92;11.63;;;;;;;;;;5055640;28;20037;-46
2021/10/24 05:05:16;;;;;;;19.15;8.00;;;;;;;;;;5055653;28;20017;-47
2021/10/24 05:07:43;;;;;;;21.88;8.88;;;;;;;;;;5055490;28;20048;-47
2021/10/24 05:10:09;;;;;;;18.73;7.65;;;;;;;;;;5055562;28;20017;-46
2021/10/24 05:12:38;;;;;;;17.60;7.63;;;;;;;;;;5055345;28;20029;-47
2021/10/24 05:15:07;;;;;;;29.48;12.05;;;;;;;;;;5055349;28;20109;-46
2021/10/24 05:17:33;;;;;;;23.42;10.38;;;;;;;;;;5055739;28;20507;-47
2021/10/24 05:19:59;;;;;;;21.85;8.30;;;;;;;;;;5055386;28;20043;-46
2021/10/24 05:22:26;;;;;;;23.02;8.48;;;;;;;;;;5055242;28;20037;-46
2021/10/24 05:24:52;;;;;;;27.33;10.38;;;;;;;;;;5054815;28;20041;-46
2021/10/24 05:27:18;;;;;;;26.42;8.80;;;;;;;;;;5055010;28;20072;-47
2021/10/24 05:29:47;;;;;;;25.17;9.55;;;;;;;;;;5055309;28;20040;-47
2021/10/24 05:32:15;;;;;;;27.67;10.52;;;;;;;;;;5055016;28;20067;-46
2021/10/24 05:34:42;;;;;;;35.22;14.35;;;;;;;;;;5055248;28;20392;-47
2021/10/24 05:37:08;;;;;;;27.77;11.73;;;;;;;;;;5055075;28;20111;-46
2021/10/24 05:39:34;;;;;;;24.77;10.88;;;;;;;;;;5054951;28;20048;-46
2021/10/24 05:42:00;;;;;;;19.98;7.90;;;;;;;;;;5054741;28;20029;-46
2021/10/24 05:44:27;;;;;;;23.73;10.23;;;;;;;;;;5055073;28;20434;-46
2021/10/24 05:46:53;;;;;;;24.25;11.52;;;;;;;;;;5054823;28;20461;-46
2021/10/24 05:49:19;;;;;;;18.15;8.95;;;;;;;;;;5054931;28;20020;-46
2021/10/24 05:51:46;;;;;;;18.13;8.02;;;;;;;;;;5054823;28;20032;-47
2021/10/24 05:54:12;;;;;;;17.30;8.85;;;;;;;;;;5054452;28;20119;-47
2021/10/24 05:56:38;;;;;;;17.00;9.07;;;;;;;;;;5054451;28;20029;-47
2021/10/24 05:59:04;;;;;;;13.82;6.85;;;;;;;;;;5054248;28;20021;-47
2021/10/24 06:01:30;;;;;;;15.00;6.63;;;;;;;;;;5053650;28;20388;-46
2021/10/24 06:03:56;;;;;;;16.67;8.82;;;;;;;;;;5054634;28;20021;-46
2021/10/24 06:06:23;;;;;;;19.67;9.30;;;;;;;;;;5054383;28;20032;-47
2021/10/24 06:08:49;;;;;;;17.55;9.98;;;;;;;;;;5054280;28;20118;-49
2021/10/24 06:13:42;;;;;;;15.10;7.72;;;;;;;;;;5054011;28;20446;-48
2021/10/24 06:16:08;;;;;;;17.42;9.07;;;;;;;;;;5054254;28;20025;-48
2021/10/24 06:18:34;;;;;;;21.10;10.18;;;;;;;;;;5054255;28;20045;-48
2021/10/24 06:21:00;;;;;;;19.40;12.23;;;;;;;;;;5054182;28;20032;-48
2021/10/24 06:23:26;;;;;;;18.40;9.45;;;;;;;;;;5054040;28;20455;-48
2021/10/24 06:25:57;;;;;;;14.05;8.07;;;;;;;;;;5053730;28;20051;-47
2021/10/24 06:28:23;;;;;;;13.48;5.60;;;;;;;;;;5053826;28;20025;-47
2021/10/24 06:30:50;;;;;;;11.18;5.55;;;;;;;;;;5054107;28;20075;-48
2021/10/24 06:33:16;;;;;;;9.05;5.10;;;;;;;;;;5054037;28;20461;-49
2021/10/24 06:35:42;;;;;;;10.07;5.15;;;;;;;;;;5053726;28;20029;-48
2021/10/24 06:38:09;;;;;;;10.13;5.45;;;;;;;;;;5053667;28;20025;-48
2021/10/24 06:40:35;;;;;;;9.95;5.10;;;;;;;;;;5053731;28;20457;-49
2021/10/24 06:43:01;;;;;;;13.30;6.13;;;;;;;;;;5053477;28;20542;-49
2021/10/24 06:45:31;;;;;;;11.75;6.82;;;;;;;;;;5052118;28;20376;-49
2021/10/24 06:47:57;;;;;;;9.27;4.90;;;;;;;;;;5052444;28;20025;-50
2021/10/24 06:50:23;;;;;;;32.50;22.17;;;;;;;;;;5052436;28;20012;-48
2021/10/24 06:52:49;;;;;;;30.40;17.35;;;;;;;;;;5052403;28;20102;-48
2021/10/24 06:55:16;;;;;;;25.63;13.60;;;;;;;;;;5049272;28;20096;-48
2021/10/24 06:57:53;;;;;;;16.20;9.32;;;;;;;;;;5052284;28;20052;-48
2021/10/24 07:00:22;;;;;;;16.95;9.50;;;;;;;;;;5049915;28;20024;-47
2021/10/24 07:02:48;;;;;;;13.65;7.10;;;;;;;;;;5051747;28;20025;-46
2021/10/24 07:05:15;;;;;;;22.23;12.05;;;;;;;;;;5052193;28;20035;-47
2021/10/24 07:07:41;;;;;;;37.95;24.80;;;;;;;;;;5049877;28;20436;-47
2021/10/24 07:10:13;;;;;;;56.05;26.30;;;;;;;;;;5051740;28;20025;-47
2021/10/24 07:12:40;;;;;;;26.23;14.48;;;;;;;;;;5052684;28;20024;-48
2021/10/24 07:15:07;;;;;;;23.52;15.70;;;;;;;;;;5051849;28;20429;-49
2021/10/24 07:17:33;;;;;;;55.55;30.40;;;;;;;;;;5052879;28;20047;-48
2021/10/24 07:19:59;;;;;;;42.75;23.95;;;;;;;;;;5053065;28;20021;-48
2021/10/24 07:22:25;;;;;;;21.95;15.60;;;;;;;;;;5052966;28;20033;-53
2021/10/24 07:24:51;;;;;;;47.83;24.63;;;;;;;;;;5052715;28;20118;-49
2021/10/24 07:27:18;;;;;;;51.53;22.95;;;;;;;;;;5052585;28;20495;-51
2021/10/24 07:29:44;;;;;;;76.30;35.17;;;;;;;;;;5052842;28;20029;-58
2021/10/24 07:32:10;;;;;;;92.15;40.60;;;;;;;;;;5052865;28;20021;-56
2021/10/24 07:34:39;;;;;;;25.45;15.30;;;;;;;;;;5052729;28;20018;-51
2021/10/24 07:37:05;;;;;;;12.93;7.95;;;;;;;;;;5052803;28;20509;-56
2021/10/24 07:39:31;;;;;;;15.98;10.98;;;;;;;;;;5052786;28;20477;-56
2021/10/24 07:41:57;;;;;;;29.65;21.13;;;;;;;;;;5052557;28;20029;-55
2021/10/24 07:44:26;;;;;;;30.25;18.38;;;;;;;;;;5052710;28;20029;-56
2021/10/24 07:46:56;;;;;;;106.35;31.60;;;;;;;;;;5052693;28;20028;-54
2021/10/24 07:49:23;;;;;;;31.80;18.35;;;;;;;;;;5052644;28;20032;-55
2021/10/24 07:51:49;;;;;;;16.95;13.02;;;;;;;;;;5052720;28;20099;-54
2021/10/24 07:54:15;;;;;;;27.55;13.55;;;;;;;;;;5052602;28;20032;-56
2021/10/24 07:56:41;;;;;;;22.02;14.80;;;;;;;;;;5052593;28;20021;-55
2021/10/24 07:59:07;;;;;;;27.83;13.65;;;;;;;;;;5052084;28;20021;-56
2021/10/24 08:01:37;;;;;;;33.47;17.05;;;;;;;;;;5051550;28;20074;-58
2021/10/24 08:04:04;;;;;;;26.53;14.97;;;;;;;;;;5049721;28;20542;-56
2021/10/24 08:06:33;;;;;;;44.38;27.63;;;;;;;;;;5052328;28;20009;-57
2021/10/24 08:09:07;;;;;;;37.30;20.90;;;;;;;;;;5052187;28;20017;-56
2021/10/24 08:11:34;;;;;;;42.17;24.00;;;;;;;;;;5051656;28;20017;-56
2021/10/24 08:14:01;;;;;;;27.00;15.85;;;;;;;;;;5052175;28;20025;-57
2021/10/24 08:16:28;;;;;;;31.05;22.13;;;;;;;;;;5052375;28;20021;-57
2021/10/24 08:18:54;;;;;;;33.22;24.00;;;;;;;;;;5052158;28;20067;-56
2021/10/24 08:21:20;;;;;;;59.05;43.42;;;;;;;;;;5052224;28;20018;-57
2021/10/24 08:23:46;;;;;;;35.55;23.00;;;;;;;;;;5053426;28;20037;-56
2021/10/24 08:26:13;;;;;;;39.17;23.63;;;;;;;;;;5054332;28;20072;-56
2021/10/24 08:28:39;;;;;;;52.78;38.00;;;;;;;;;;5055352;28;20024;-59
2021/10/24 08:31:05;;;;;;;18.55;13.63;;;;;;;;;;5055681;28;20028;-56
2021/10/24 08:33:31;;;;;;;29.40;17.10;;;;;;;;;;5055511;28;20074;-55
2021/10/24 08:36:01;;;;;;;32.60;16.80;;;;;;;;;;5055602;28;20025;-53
2021/10/24 08:38:28;;;;;;;35.63;17.88;;;;;;;;;;5055509;28;20021;-55
2021/10/24 08:40:54;;;;;;;37.88;20.17;;;;;;;;;;5055582;28;20017;-55
2021/10/24 08:43:27;;;;;;;27.60;17.08;;;;;;;;;;5055329;28;20036;-55
2021/10/24 08:45:53;;;;;;;35.20;20.30;;;;;;;;;;5055500;28;20116;-55
2021/10/24 08:48:19;;;;;;;25.67;14.40;;;;;;;;;;5055266;28;20104;-57
2021/10/24 08:50:46;;;;;;;38.55;21.88;;;;;;;;;;5055385;28;20453;-56
2021/10/24 08:53:15;;;;;;;42.72;21.25;;;;;;;;;;5055789;28;20078;-55
2021/10/24 08:55:42;;;;;;;15.93;6.65;;;;;;;;;;5055649;28;20024;-55
2021/10/24 08:58:09;;;;;;;19.65;7.22;;;;;;;;;;5055380;28;20082;-54
2021/10/24 09:00:36;;;;;;;20.25;10.35;;;;;;;;;;5055702;28;20107;-54
2021/10/24 09:03:12;;;;;;;16.58;7.70;;;;;;;;;;5055606;28;20116;-54
2021/10/24 09:05:40;;;;;;;13.45;5.90;;;;;;;;;;5056007;28;20045;-54
2021/10/24 09:08:09;;;;;;;10.52;5.07;;;;;;;;;;5055756;28;20037;-55
2021/10/24 09:11:02;;;;;;;13.07;5.63;;;;;;;;;;5055818;28;20021;-54
2021/10/24 09:13:31;;;;;;;7.90;3.63;;;;;;;;;;5054250;28;20032;-53
2021/10/24 09:16:12;;;;;;;14.00;6.43;;;;;;;;;;5053454;28;20105;-55
2021/10/24 09:18:39;;;;;;;11.20;4.78;;;;;;;;;;5055205;28;20037;-54
2021/10/24 09:21:20;;;;;;;10.57;5.07;;;;;;;;;;5055323;28;20020;-53
2021/10/24 09:23:46;;;;;;;;;;;;;;;;;;5055544;28;20033;-52
2021/10/24 09:26:23;;;;;;;21.38;9.85;;;;;;;;;;5055043;28;19924;-52
2021/10/24 09:29:06;;;;;;;11.30;5.13;;;;;;;;;;5055029;28;20063;-53
2021/10/24 09:31:36;;;;;;;13.07;5.53;;;;;;;;;;5054496;28;20035;-52
2021/10/24 09:34:17;;;;;;;12.35;4.82;;;;;;;;;;5054208;28;20096;-52
2021/10/24 09:36:49;;;;;;;10.23;4.85;;;;;;;;;;5053358;28;20021;-52
2021/10/24 09:39:15;;;;;;;23.23;11.15;;;;;;;;;;5054505;28;20100;-53
2021/10/24 09:41:41;;;;;;;18.92;7.80;;;;;;;;;;5054747;28;20036;-52
2021/10/24 09:44:13;;;;;;;12.18;5.85;;;;;;;;;;5054728;28;20059;-53
2021/10/24 09:46:50;;;;;;;11.23;4.72;;;;;;;;;;5054910;28;20032;-52
2021/10/24 09:49:17;;;;;;;7.95;4.15;;;;;;;;;;5053464;28;20033;-52
2021/10/24 09:51:43;;;;;;;13.05;6.93;;;;;;;;;;5054577;28;20535;-51
2021/10/24 09:54:19;;;;;;;9.95;4.20;;;;;;;;;;5054396;28;20385;-52
2021/10/24 09:56:46;;;;;;;10.23;4.78;;;;;;;;;;5054690;28;20424;-48
2021/10/24 09:59:13;;;;;;;21.33;10.65;;;;;;;;;;5053174;28;20025;-48
2021/10/24 10:01:39;;;;;;;12.13;4.78;;;;;;;;;;5054385;28;20100;-48
2021/10/24 10:04:05;;;;;;;16.23;7.43;;;;;;;;;;5054305;28;20039;-46
2021/10/24 10:06:34;;;;;;;10.15;5.10;;;;;;;;;;5054406;28;20021;-47
2021/10/24 10:09:00;;;;;;;19.25;6.15;;;;;;;;;;5054264;28;20048;-47
2021/10/24 10:11:32;;;;;;;13.93;4.85;;;;;;;;;;5054444;28;20025;-49
2021/10/24 10:14:07;;;;;;;23.17;5.63;;;;;;;;;;5054125;28;20399;-47
2021/10/24 10:16:36;;;;;;;10.32;5.65;;;;;;;;;;5054276;28;20045;-47
2021/10/24 10:19:03;;;;;;;15.75;6.22;;;;;;;;;;5054227;28;20032;-48
2021/10/24 10:21:36;;;;;;;10.98;5.78;;;;;;;;;;5052822;28;20409;-48
2021/10/24 10:24:06;;;;;;;10.15;4.82;;;;;;;;;;5052661;28;20055;-48
2021/10/24 10:26:39;;;;;;;11.10;4.65;;;;;;;;;;5053962;28;20049;-47
2021/10/24 10:29:10;;;;;;;12.20;5.30;;;;;;;;;;5053956;28;20033;-47
2021/10/24 10:31:36;;;;;;;27.63;13.77;;;;;;;;;;5053929;28;20104;-47
2021/10/24 10:34:05;;;;;;;39.70;16.98;;;;;;;;;;5053741;28;20544;-48
2021/10/24 10:36:47;;;;;;;20.98;11.13;;;;;;;;;;5054088;28;20033;-47
2021/10/24 10:39:34;;;;;;;30.80;16.52;;;;;;;;;;5053667;28;20472;-48
2021/10/24 10:42:19;;;;;;;24.77;12.43;;;;;;;;;;5053735;28;20048;-48
2021/10/24 10:45:08;;;;;;;34.65;14.52;;;;;;;;;;5052411;28;20045;-47
2021/10/24 10:47:53;;;;;;;34.20;18.40;;;;;;;;;;5050183;28;20041;-50
2021/10/24 10:50:32;;;;;;;17.50;7.65;;;;;;;;;;5053710;28;20029;-49
2021/10/24 10:53:03;;;;;;;13.00;6.95;;;;;;;;;;5053618;28;20044;-47
2021/10/24 10:56:00;;;;;;;27.98;13.07;;;;;;;;;;5053381;28;20048;-48
2021/10/24 10:58:36;;;;;;;14.18;6.55;;;;;;;;;;5048567;28;20047;-49
2021/10/24 11:01:26;;;;;;;24.20;13.32;;;;;;;;;;5053377;28;20033;-49
2021/10/24 11:03:56;;;;;;;21.23;9.77;;;;;;;;;;5049563;28;20053;-49
2021/10/24 11:06:25;;;;;;;22.27;12.65;;;;;;;;;;5053576;28;20009;-49
2021/10/24 11:08:58;;;;;;;21.73;11.23;;;;;;;;;;5053527;28;20086;-49
2021/10/24 11:11:45;;;;;;;21.27;11.27;;;;;;;;;;5053379;28;20021;-49
2021/10/24 11:14:11;;;;;;;24.10;9.70;;;;;;;;;;5053152;28;20017;-49
2021/10/24 11:16:39;;;;;;;21.77;11.63;;;;;;;;;;5052968;28;20032;-49
2021/10/24 11:19:23;;;;;;;33.53;18.17;;;;;;;;;;5053342;28;20469;-49
2021/10/24 11:21:50;;;;;;;14.77;7.13;;;;;;;;;;5052632;28;20029;-49
2021/10/24 11:24:17;;;;;;;17.92;9.93;;;;;;;;;;5052359;28;20110;-48
2021/10/24 11:26:43;;;;;;;19.58;9.80;;;;;;;;;;5052452;28;20033;-49
2021/10/24 11:29:09;;;;;;;31.67;18.13;;;;;;;;;;5052615;28;20079;-49
2021/10/24 11:31:36;;;;;;;32.25;17.08;;;;;;;;;;5052572;28;20017;-49
2021/10/24 11:34:04;;;;;;;14.20;6.70;;;;;;;;;;5052588;28;20021;-49
2021/10/24 11:36:30;;;;;;;19.63;9.93;;;;;;;;;;5052598;28;20013;-49
2021/10/24 11:39:00;;;;;;;9.93;5.70;;;;;;;;;;5052492;28;20021;-49
2021/10/24 11:41:26;;;;;;;40.88;17.83;;;;;;;;;;5052807;28;20035;-49
2021/10/24 11:44:03;;;;;;;15.43;6.55;;;;;;;;;;5052384;28;20029;-50
2021/10/24 11:46:29;;;;;;;11.55;5.60;;;;;;;;;;5050427;28;20029;-51
2021/10/24 11:49:01;;;;;;;28.20;10.15;;;;;;;;;;5053055;28;20431;-51
2021/10/24 11:51:28;;;;;;;21.88;11.95;;;;;;;;;;5052924;28;20384;-49
2021/10/24 11:53:54;;;;;;;15.25;7.45;;;;;;;;;;5052682;28;20075;-51
2021/10/24 12:01:24;;;;;;;18.63;9.38;;;;;;;;;;5057047;28;20468;-48
2021/10/24 12:03:56;;;;;;;22.58;8.73;;;;;;;;;;5056716;28;20041;-48
2021/10/24 12:06:41;;;;;;;16.92;8.43;;;;;;;;;;5056804;28;20013;-50
2021/10/24 12:09:13;;;;;;;20.52;9.93;;;;;;;;;;5056620;28;20396;-49
2021/10/24 12:11:42;;;;;;;31.83;19.05;;;;;;;;;;5056604;28;20488;-50
2021/10/24 12:14:11;;;;;;;20.80;9.98;;;;;;;;;;5056549;28;20526;-52
2021/10/24 12:16:41;;;;;;;37.78;23.42;;;;;;;;;;5056217;28;20032;-51
2021/10/24 12:19:07;;;;;;;24.20;13.25;;;;;;;;;;5055957;28;20056;-51
2021/10/24 12:21:34;;;;;;;11.00;5.47;;;;;;;;;;5056133;28;20052;-49
2021/10/24 12:24:20;;;;;;;12.52;6.60;;;;;;;;;;5055833;28;20469;-50
2021/10/24 12:26:48;;;;;;;10.50;4.32;;;;;;;;;;5054553;28;20069;-50
2021/10/24 12:29:18;;;;;;;15.20;5.50;;;;;;;;;;5056328;28;20404;-48
2021/10/24 12:31:45;;;;;;;9.15;4.57;;;;;;;;;;5056130;28;20025;-49
2021/10/24 12:34:12;;;;;;;14.18;6.90;;;;;;;;;;5054881;28;20040;-50
2021/10/24 12:36:39;;;;;;;12.48;7.22;;;;;;;;;;5056201;28;20048;-48
2021/10/24 12:39:09;;;;;;;11.55;4.95;;;;;;;;;;5055981;28;20056;-51
2021/10/24 12:41:35;;;;;;;6.32;3.05;;;;;;;;;;5054829;28;20024;-50
2021/10/24 12:44:06;;;;;;;7.93;4.68;;;;;;;;;;5055879;28;20037;-50
2021/10/24 12:46:33;;;;;;;9.47;5.37;;;;;;;;;;5055607;28;20105;-49
2021/10/24 12:49:09;;;;;;;6.22;3.08;;;;;;;;;;5055597;28;20449;-52
2021/10/24 12:51:35;;;;;;;14.63;7.63;;;;;;;;;;5055467;28;20483;-49
2021/10/24 12:54:02;;;;;;;10.82;5.28;;;;;;;;;;5055418;28;20025;-48
2021/10/24 12:56:29;;;;;;;14.70;6.53;;;;;;;;;;5055483;28;20032;-50
2021/10/24 12:58:55;;;;;;;8.50;3.10;;;;;;;;;;5055445;28;20036;-50
2021/10/24 13:01:22;;;;;;;3.60;2.10;;;;;;;;;;5055355;28;20037;-51
2021/10/24 13:03:48;;;;;;;12.90;5.20;;;;;;;;;;5055264;28;20391;-50
2021/10/24 13:06:17;;;;;;;9.27;3.13;;;;;;;;;;5055243;28;20024;-49
2021/10/24 13:08:43;;;;;;;5.50;3.08;;;;;;;;;;5054776;28;20504;-51
2021/10/24 13:11:12;;;;;;;7.03;3.47;;;;;;;;;;5055305;28;20060;-51
2021/10/24 13:13:39;;;;;;;15.25;9.27;;;;;;;;;;5055118;28;20043;-49
2021/10/24 13:16:05;;;;;;;38.28;17.60;;;;;;;;;;5055059;28;20025;-47
2021/10/24 13:18:31;;;;;;;12.93;6.35;;;;;;;;;;5055323;28;20458;-48
2021/10/24 13:21:01;;;;;;;20.83;10.40;;;;;;;;;;5055110;28;20031;-47
2021/10/24 13:23:27;;;;;;;21.38;12.43;;;;;;;;;;5055014;28;20033;-51
2021/10/24 13:25:54;;;;;;;12.27;5.20;;;;;;;;;;5054829;28;20500;-51
2021/10/24 13:28:20;;;;;;;9.68;4.43;;;;;;;;;;5053789;28;20132;-50
2021/10/24 13:30:47;;;;;;;6.43;2.65;;;;;;;;;;5046742;28;20090;-49
2021/10/24 13:33:14;;;;;;;11.45;6.68;;;;;;;;;;5025052;28;20032;-49
2021/10/24 13:35:40;;;;;;;8.13;3.70;;;;;;;;;;5022857;28;20128;-49
2021/10/24 13:38:06;;;;;;;11.30;4.95;;;;;;;;;;5023047;28;20032;-49
2021/10/24 13:40:32;;;;;;;6.75;4.35;;;;;;;;;;5022867;28;20026;-48
2021/10/24 13:42:58;;;;;;;12.88;5.15;;;;;;;;;;5023034;28;20489;-48
2021/10/24 13:45:25;;;;;;;9.02;4.68;;;;;;;;;;5023817;28;20026;-47
2021/10/24 13:47:51;;;;;;;13.40;5.82;;;;;;;;;;5022770;28;20715;-48
2021/10/24 13:50:17;;;;;;;7.55;4.10;;;;;;;;;;5022696;28;20025;-48
2021/10/24 13:52:43;;;;;;;10.68;4.50;;;;;;;;;;5022610;28;20536;-48
2021/10/24 13:55:10;;;;;;;14.27;6.10;;;;;;;;;;5022502;28;20068;-49
2021/10/24 13:57:36;;;;;;;17.45;7.72;;;;;;;;;;5022441;28;20453;-48
2021/10/24 14:00:04;;;;;;;8.80;5.13;;;;;;;;;;5023236;28;20918;-48
2021/10/24 14:02:30;;;;;;;10.57;5.10;;;;;;;;;;5022438;28;20426;-49
2021/10/24 14:04:59;;;;;;;8.35;4.38;;;;;;;;;;5024029;28;20507;-48
2021/10/24 14:07:25;;;;;;;8.48;4.00;;;;;;;;;;5022926;28;20026;-48
2021/10/24 14:09:54;;;;;;;11.93;5.57;;;;;;;;;;5023515;28;20127;-49
2021/10/24 14:12:20;;;;;;;16.13;5.75;;;;;;;;;;5023979;28;20043;-48
2021/10/24 14:14:46;;;;;;;10.10;4.20;;;;;;;;;;5023540;28;20175;-49
2021/10/24 14:17:13;;;;;;;17.80;9.93;;;;;;;;;;5046651;28;20020;-49
2021/10/24 14:19:39;;;;;;;15.73;7.80;;;;;;;;;;5074309;28;20041;-50
2021/10/24 14:22:05;;;;;;;23.02;11.80;;;;;;;;;;5073643;28;20025;-50
2021/10/24 14:24:32;;;;;;;14.15;7.13;;;;;;;;;;5073906;28;20049;-50
2021/10/24 14:27:08;;;;;;;16.00;6.07;;;;;;;;;;5073002;28;20390;-50
2021/10/24 14:29:39;;;;;;;14.77;7.28;;;;;;;;;;5074087;28;20025;-50
2021/10/24 14:32:10;;;;;;;11.88;5.50;;;;;;;;;;5074039;28;20472;-52
2021/10/24 14:34:36;;;;;;;14.88;7.93;;;;;;;;;;5074110;28;20067;-50
2021/10/24 14:37:03;;;;;;;13.52;6.80;;;;;;;;;;5073954;28;20040;-51
2021/10/24 14:39:29;;;;;;;19.25;7.35;;;;;;;;;;5073877;28;20052;-50